Terminal Aerodrome Forecast
Issued by NWS

Home | Current Version | Previous Version | Graphics & Text | Print | Product List | Glossary On
Versions: 1 2 3 4 5 6 7 8 9 10 11 12 13 14 15 16 17 18 19 20 21 22 23 24 25
461
FTUS43 KLOT 210530
TAFORD
TAF
KORD 210530Z 2106/2212 21018G26KT P6SM BKN250 WS020/22055KT
     FM210900 23014KT P6SM BKN150 WS020/25040KT
     FM211500 30015G25KT P6SM BKN045
     FM220000 32010KT P6SM SCT050=

USA.gov is the U.S. government's official web portal to all federal, state and local government web resources and services.